sensor_id;sensor_type;location;lat;lon;timestamp;pressure;altitude;pressure_sealevel;temperature;humidity
72038;BME280;59900;50.788;12.904;2023-02-27T00:00:07;98309.47;;;-3.58;86.81
72038;BME280;59900;50.788;12.904;2023-02-27T00:02:43;98316.63;;;-3.63;86.79
72038;BME280;59900;50.788;12.904;2023-02-27T00:05:08;98319.19;;;-3.63;86.63
72038;BME280;59900;50.788;12.904;2023-02-27T00:07:34;98315.91;;;-3.65;86.65
72038;BME280;59900;50.788;12.904;2023-02-27T00:09:59;98313.69;;;-3.71;86.07
72038;BME280;59900;50.788;12.904;2023-02-27T00:12:24;98323.41;;;-3.76;86.93
72038;BME280;59900;50.788;12.904;2023-02-27T00:14:50;98318.44;;;-3.79;86.74
72038;BME280;59900;50.788;12.904;2023-02-27T00:17:15;98318.44;;;-3.79;87.15
72038;BME280;59900;50.788;12.904;2023-02-27T00:19:41;98322.16;;;-3.84;87.39
72038;BME280;59900;50.788;12.904;2023-02-27T00:22:06;98326.84;;;-3.91;87.35
72038;BME280;59900;50.788;12.904;2023-02-27T00:24:31;98327.69;;;-3.90;87.98
72038;BME280;59900;50.788;12.904;2023-02-27T00:26:57;98327.84;;;-3.93;87.50
72038;BME280;59900;50.788;12.904;2023-02-27T00:29:22;98321.88;;;-3.94;87.54
72038;BME280;59900;50.788;12.904;2023-02-27T00:31:47;98324.53;;;-3.96;87.71
72038;BME280;59900;50.788;12.904;2023-02-27T00:34:12;98322.47;;;-4.05;87.68
72038;BME280;59900;50.788;12.904;2023-02-27T00:36:39;98322.00;;;-4.11;86.88
72038;BME280;59900;50.788;12.904;2023-02-27T00:39:04;98322.34;;;-4.17;87.16
72038;BME280;59900;50.788;12.904;2023-02-27T00:41:30;98317.63;;;-4.25;86.83
72038;BME280;59900;50.788;12.904;2023-02-27T00:43:55;98316.16;;;-4.29;87.56
72038;BME280;59900;50.788;12.904;2023-02-27T00:46:21;98317.13;;;-4.31;87.95
72038;BME280;59900;50.788;12.904;2023-02-27T00:48:46;98316.34;;;-4.32;88.24
72038;BME280;59900;50.788;12.904;2023-02-27T00:51:12;98318.25;;;-4.35;87.87
72038;BME280;59900;50.788;12.904;2023-02-27T00:53:37;98305.66;;;-4.40;87.33
72038;BME280;59900;50.788;12.904;2023-02-27T00:56:03;98313.06;;;-4.49;86.90
72038;BME280;59900;50.788;12.904;2023-02-27T00:58:28;98308.59;;;-4.62;86.45
72038;BME280;59900;50.788;12.904;2023-02-27T01:00:53;98307.75;;;-4.78;86.66
72038;BME280;59900;50.788;12.904;2023-02-27T01:03:19;98311.41;;;-4.82;86.89
72038;BME280;59900;50.788;12.904;2023-02-27T01:05:44;98305.44;;;-4.82;87.90
72038;BME280;59900;50.788;12.904;2023-02-27T01:08:09;98306.50;;;-4.86;87.56
72038;BME280;59900;50.788;12.904;2023-02-27T01:10:34;98311.72;;;-4.88;87.24
72038;BME280;59900;50.788;12.904;2023-02-27T01:13:00;98312.63;;;-4.89;87.64
72038;BME280;59900;50.788;12.904;2023-02-27T01:15:25;98313.19;;;-4.84;87.66
72038;BME280;59900;50.788;12.904;2023-02-27T01:17:50;98312.31;;;-4.83;87.22
72038;BME280;59900;50.788;12.904;2023-02-27T01:20:16;98313.03;;;-4.81;87.13
72038;BME280;59900;50.788;12.904;2023-02-27T01:22:41;98314.88;;;-4.83;86.91
72038;BME280;59900;50.788;12.904;2023-02-27T01:25:07;98312.56;;;-4.87;86.94
72038;BME280;59900;50.788;12.904;2023-02-27T01:27:32;98306.66;;;-4.89;86.65
72038;BME280;59900;50.788;12.904;2023-02-27T01:29:58;98303.19;;;-4.88;87.55
72038;BME280;59900;50.788;12.904;2023-02-27T01:32:23;98308.41;;;-4.90;87.50
72038;BME280;59900;50.788;12.904;2023-02-27T01:34:48;98305.34;;;-4.96;87.05
72038;BME280;59900;50.788;12.904;2023-02-27T01:37:13;98300.28;;;-4.98;87.31
72038;BME280;59900;50.788;12.904;2023-02-27T01:39:39;98307.16;;;-4.98;87.08
72038;BME280;59900;50.788;12.904;2023-02-27T01:42:09;98310.53;;;-4.98;87.41
72038;BME280;59900;50.788;12.904;2023-02-27T01:47:36;98314.34;;;-5.05;86.37
72038;BME280;59900;50.788;12.904;2023-02-27T01:50:03;98317.97;;;-5.09;86.51
72038;BME280;59900;50.788;12.904;2023-02-27T01:52:29;98319.34;;;-5.19;86.82
72038;BME280;59900;50.788;12.904;2023-02-27T01:54:56;98314.78;;;-5.30;87.08
72038;BME280;59900;50.788;12.904;2023-02-27T01:57:21;98311.13;;;-5.41;88.15
72038;BME280;59900;50.788;12.904;2023-02-27T01:59:46;98321.31;;;-5.57;87.65
72038;BME280;59900;50.788;12.904;2023-02-27T02:02:17;98325.16;;;-5.66;87.51
72038;BME280;59900;50.788;12.904;2023-02-27T02:04:44;98324.06;;;-5.77;87.92
72038;BME280;59900;50.788;12.904;2023-02-27T02:07:12;98325.03;;;-5.80;88.40
72038;BME280;59900;50.788;12.904;2023-02-27T02:09:42;98327.69;;;-5.81;88.63
72038;BME280;59900;50.788;12.904;2023-02-27T02:12:12;98327.19;;;-5.72;88.80
72038;BME280;59900;50.788;12.904;2023-02-27T02:14:37;98325.59;;;-5.57;89.03
72038;BME280;59900;50.788;12.904;2023-02-27T02:17:17;98330.25;;;-5.48;88.85
72038;BME280;59900;50.788;12.904;2023-02-27T02:25:56;98341.50;;;-5.51;87.05
72038;BME280;59900;50.788;12.904;2023-02-27T02:37:13;98335.66;;;-5.70;86.56
72038;BME280;59900;50.788;12.904;2023-02-27T02:40:01;98340.09;;;-5.74;86.92
72038;BME280;59900;50.788;12.904;2023-02-27T02:42:46;98340.84;;;-5.72;87.33
72038;BME280;59900;50.788;12.904;2023-02-27T02:45:27;98344.16;;;-5.70;87.70
72038;BME280;59900;50.788;12.904;2023-02-27T02:50:55;98353.81;;;-5.92;87.26
72038;BME280;59900;50.788;12.904;2023-02-27T02:53:31;98349.13;;;-6.01;87.46
72038;BME280;59900;50.788;12.904;2023-02-27T02:56:13;98352.38;;;-6.14;87.23
72038;BME280;59900;50.788;12.904;2023-02-27T02:58:53;98352.94;;;-6.27;87.94
72038;BME280;59900;50.788;12.904;2023-02-27T03:01:29;98343.59;;;-6.28;89.82
72038;BME280;59900;50.788;12.904;2023-02-27T03:04:02;98352.19;;;-6.29;90.13
72038;BME280;59900;50.788;12.904;2023-02-27T03:06:33;98351.06;;;-6.23;89.93
72038;BME280;59900;50.788;12.904;2023-02-27T03:09:11;98359.66;;;-6.24;89.65
72038;BME280;59900;50.788;12.904;2023-02-27T03:11:40;98355.28;;;-6.22;89.98
72038;BME280;59900;50.788;12.904;2023-02-27T03:14:16;98362.06;;;-6.21;89.21
72038;BME280;59900;50.788;12.904;2023-02-27T03:16:46;98357.63;;;-6.17;88.70
72038;BME280;59900;50.788;12.904;2023-02-27T03:19:17;98356.66;;;-6.15;88.15
72038;BME280;59900;50.788;12.904;2023-02-27T03:21:55;98352.44;;;-6.16;88.04
72038;BME280;59900;50.788;12.904;2023-02-27T03:24:36;98354.94;;;-6.14;87.17
72038;BME280;59900;50.788;12.904;2023-02-27T03:27:04;98357.63;;;-6.17;88.21
72038;BME280;59900;50.788;12.904;2023-02-27T03:29:43;98365.44;;;-6.20;87.98
72038;BME280;59900;50.788;12.904;2023-02-27T03:32:16;98359.50;;;-6.21;88.20
72038;BME280;59900;50.788;12.904;2023-02-27T03:34:43;98362.81;;;-6.19;88.35
72038;BME280;59900;50.788;12.904;2023-02-27T03:37:26;98367.56;;;-6.11;88.94
72038;BME280;59900;50.788;12.904;2023-02-27T03:40:00;98377.53;;;-6.05;88.68
72038;BME280;59900;50.788;12.904;2023-02-27T03:42:40;98378.56;;;-5.92;89.12
72038;BME280;59900;50.788;12.904;2023-02-27T03:45:31;98380.00;;;-5.87;88.45
72038;BME280;59900;50.788;12.904;2023-02-27T03:47:58;98383.91;;;-5.80;87.93
72038;BME280;59900;50.788;12.904;2023-02-27T03:50:23;98392.41;;;-5.79;87.41
72038;BME280;59900;50.788;12.904;2023-02-27T03:52:49;98383.59;;;-5.74;87.38
72038;BME280;59900;50.788;12.904;2023-02-27T03:55:18;98395.50;;;-5.73;86.84
72038;BME280;59900;50.788;12.904;2023-02-27T03:57:47;98388.19;;;-5.80;85.91
72038;BME280;59900;50.788;12.904;2023-02-27T04:00:16;98381.81;;;-5.89;86.46
72038;BME280;59900;50.788;12.904;2023-02-27T04:02:42;98394.69;;;-5.90;87.07
72038;BME280;59900;50.788;12.904;2023-02-27T04:05:08;98392.13;;;-5.90;87.66
72038;BME280;59900;50.788;12.904;2023-02-27T04:07:47;98399.66;;;-5.87;87.42
72038;BME280;59900;50.788;12.904;2023-02-27T04:10:47;98399.41;;;-5.83;87.27
72038;BME280;59900;50.788;12.904;2023-02-27T04:19:06;98393.41;;;-5.64;87.87
72038;BME280;59900;50.788;12.904;2023-02-27T04:22:12;98395.34;;;-5.52;88.41
72038;BME280;59900;50.788;12.904;2023-02-27T04:25:04;98401.97;;;-5.48;87.57
72038;BME280;59900;50.788;12.904;2023-02-27T04:27:46;98400.31;;;-5.49;87.43
72038;BME280;59900;50.788;12.904;2023-02-27T04:33:04;98400.97;;;-5.46;87.15
72038;BME280;59900;50.788;12.904;2023-02-27T04:35:45;98405.31;;;-5.46;87.55
72038;BME280;59900;50.788;12.904;2023-02-27T04:38:19;98411.47;;;-5.50;87.72
72038;BME280;59900;50.788;12.904;2023-02-27T04:43:54;98406.09;;;-5.46;87.49
72038;BME280;59900;50.788;12.904;2023-02-27T04:46:23;98406.94;;;-5.45;87.74
72038;BME280;59900;50.788;12.904;2023-02-27T04:51:22;98412.38;;;-5.34;87.68
72038;BME280;59900;50.788;12.904;2023-02-27T04:53:54;98411.31;;;-5.30;87.75
72038;BME280;59900;50.788;12.904;2023-02-27T04:56:28;98407.69;;;-5.26;87.22
72038;BME280;59900;50.788;12.904;2023-02-27T04:59:01;98410.09;;;-5.23;86.96
72038;BME280;59900;50.788;12.904;2023-02-27T05:01:35;98413.34;;;-5.20;87.01
72038;BME280;59900;50.788;12.904;2023-02-27T05:04:02;98417.31;;;-5.14;87.16
72038;BME280;59900;50.788;12.904;2023-02-27T05:06:32;98420.69;;;-5.14;86.95
72038;BME280;59900;50.788;12.904;2023-02-27T05:09:08;98416.88;;;-5.05;87.16
72038;BME280;59900;50.788;12.904;2023-02-27T05:11:53;98422.88;;;-5.06;86.73
72038;BME280;59900;50.788;12.904;2023-02-27T05:14:28;98424.75;;;-5.10;86.28
72038;BME280;59900;50.788;12.904;2023-02-27T05:17:02;98426.91;;;-5.18;86.17
72038;BME280;59900;50.788;12.904;2023-02-27T05:19:31;98427.94;;;-5.22;85.79
72038;BME280;59900;50.788;12.904;2023-02-27T05:22:05;98420.22;;;-5.37;86.39
72038;BME280;59900;50.788;12.904;2023-02-27T05:24:52;98431.09;;;-5.34;86.83
72038;BME280;59900;50.788;12.904;2023-02-27T05:27:41;98431.94;;;-5.33;87.83
72038;BME280;59900;50.788;12.904;2023-02-27T05:30:28;98434.78;;;-5.22;88.35
72038;BME280;59900;50.788;12.904;2023-02-27T05:33:06;98431.19;;;-5.18;87.68
72038;BME280;59900;50.788;12.904;2023-02-27T05:35:37;98441.28;;;-5.15;88.32
72038;BME280;59900;50.788;12.904;2023-02-27T05:38:13;98434.34;;;-5.13;87.82
72038;BME280;59900;50.788;12.904;2023-02-27T05:40:46;98431.19;;;-5.18;87.93
72038;BME280;59900;50.788;12.904;2023-02-27T05:43:18;98433.69;;;-5.17;87.69
72038;BME280;59900;50.788;12.904;2023-02-27T05:45:47;98428.78;;;-5.21;87.27
72038;BME280;59900;50.788;12.904;2023-02-27T05:48:16;98431.50;;;-5.24;87.53
72038;BME280;59900;50.788;12.904;2023-02-27T05:50:47;98436.56;;;-5.23;88.26
72038;BME280;59900;50.788;12.904;2023-02-27T05:53:17;98433.69;;;-5.17;88.39
72038;BME280;59900;50.788;12.904;2023-02-27T05:55:47;98430.13;;;-5.14;88.61
72038;BME280;59900;50.788;12.904;2023-02-27T05:58:22;98431.41;;;-5.05;88.99
72038;BME280;59900;50.788;12.904;2023-02-27T06:01:00;98437.13;;;-5.00;88.59
72038;BME280;59900;50.788;12.904;2023-02-27T06:03:30;98433.56;;;-4.98;88.63
72038;BME280;59900;50.788;12.904;2023-02-27T06:05:58;98434.81;;;-5.05;88.54
72038;BME280;59900;50.788;12.904;2023-02-27T06:08:24;98440.22;;;-5.11;88.26
72038;BME280;59900;50.788;12.904;2023-02-27T06:10:49;98444.16;;;-5.21;87.98
72038;BME280;59900;50.788;12.904;2023-02-27T06:13:15;98443.56;;;-5.26;88.69
72038;BME280;59900;50.788;12.904;2023-02-27T06:15:42;98452.88;;;-5.25;89.44
72038;BME280;59900;50.788;12.904;2023-02-27T06:18:08;98453.34;;;-5.17;90.22
72038;BME280;59900;50.788;12.904;2023-02-27T06:20:34;98462.31;;;-5.08;90.03
72038;BME280;59900;50.788;12.904;2023-02-27T06:22:59;98454.31;;;-5.02;89.60
72038;BME280;59900;50.788;12.904;2023-02-27T06:25:24;98460.03;;;-4.97;89.71
72038;BME280;59900;50.788;12.904;2023-02-27T06:27:50;98466.34;;;-4.87;89.54
72038;BME280;59900;50.788;12.904;2023-02-27T06:30:15;98463.97;;;-4.75;89.34
72038;BME280;59900;50.788;12.904;2023-02-27T06:32:40;98472.03;;;-4.65;89.07
72038;BME280;59900;50.788;12.904;2023-02-27T06:35:06;98475.13;;;-4.59;89.17
72038;BME280;59900;50.788;12.904;2023-02-27T06:37:32;98473.06;;;-4.52;88.75
72038;BME280;59900;50.788;12.904;2023-02-27T06:39:57;98476.72;;;-4.40;88.71
72038;BME280;59900;50.788;12.904;2023-02-27T06:42:22;98472.22;;;-4.37;87.76
72038;BME280;59900;50.788;12.904;2023-02-27T06:44:48;98484.06;;;-4.34;88.40
72038;BME280;59900;50.788;12.904;2023-02-27T06:47:13;98490.47;;;-4.26;88.42
72038;BME280;59900;50.788;12.904;2023-02-27T06:49:38;98487.50;;;-4.18;88.49
72038;BME280;59900;50.788;12.904;2023-02-27T06:52:03;98492.13;;;-4.09;88.66
72038;BME280;59900;50.788;12.904;2023-02-27T06:54:29;98493.44;;;-4.02;87.87
72038;BME280;59900;50.788;12.904;2023-02-27T06:56:54;98483.78;;;-3.97;88.16
72038;BME280;59900;50.788;12.904;2023-02-27T06:59:19;98483.53;;;-3.92;87.79
72038;BME280;59900;50.788;12.904;2023-02-27T07:01:45;98490.00;;;-3.85;87.90
72038;BME280;59900;50.788;12.904;2023-02-27T07:04:14;98493.13;;;-3.80;87.53
72038;BME280;59900;50.788;12.904;2023-02-27T07:06:39;98493.22;;;-3.82;87.48
72038;BME280;59900;50.788;12.904;2023-02-27T07:09:05;98505.72;;;-3.76;87.18
72038;BME280;59900;50.788;12.904;2023-02-27T07:11:30;98507.19;;;-3.72;87.47
72038;BME280;59900;50.788;12.904;2023-02-27T07:13:56;98507.78;;;-3.67;87.26
72038;BME280;59900;50.788;12.904;2023-02-27T07:16:21;98508.59;;;-3.66;87.05
72038;BME280;59900;50.788;12.904;2023-02-27T07:18:46;98515.97;;;-3.60;86.94
72038;BME280;59900;50.788;12.904;2023-02-27T07:21:12;98511.78;;;-3.61;85.83
72038;BME280;59900;50.788;12.904;2023-02-27T07:23:39;98516.97;;;-3.63;85.87
72038;BME280;59900;50.788;12.904;2023-02-27T07:26:04;98523.84;;;-3.63;85.83
72038;BME280;59900;50.788;12.904;2023-02-27T07:28:30;98523.63;;;-3.59;86.13
72038;BME280;59900;50.788;12.904;2023-02-27T07:30:55;98526.56;;;-3.51;86.42
72038;BME280;59900;50.788;12.904;2023-02-27T07:33:20;98522.66;;;-3.42;86.62
72038;BME280;59900;50.788;12.904;2023-02-27T07:35:46;98519.66;;;-3.34;85.85
72038;BME280;59900;50.788;12.904;2023-02-27T07:38:11;98529.69;;;-3.30;85.40
72038;BME280;59900;50.788;12.904;2023-02-27T07:40:37;98519.16;;;-3.25;85.45
72038;BME280;59900;50.788;12.904;2023-02-27T07:43:02;98518.16;;;-3.23;85.00
72038;BME280;59900;50.788;12.904;2023-02-27T07:45:27;98512.09;;;-3.22;85.27
72038;BME280;59900;50.788;12.904;2023-02-27T07:47:53;98509.34;;;-3.19;85.50
72038;BME280;59900;50.788;12.904;2023-02-27T07:50:18;98513.50;;;-3.16;85.56
72038;BME280;59900;50.788;12.904;2023-02-27T07:52:44;98501.66;;;-3.19;85.49
72038;BME280;59900;50.788;12.904;2023-02-27T07:55:11;98504.88;;;-3.15;85.35
72038;BME280;59900;50.788;12.904;2023-02-27T07:57:37;98503.03;;;-3.13;85.13
72038;BME280;59900;50.788;12.904;2023-02-27T08:00:06;98501.06;;;-3.08;85.77
72038;BME280;59900;50.788;12.904;2023-02-27T08:02:32;98500.66;;;-3.02;85.87
72038;BME280;59900;50.788;12.904;2023-02-27T08:04:57;98511.59;;;-2.99;86.63
72038;BME280;59900;50.788;12.904;2023-02-27T08:07:23;98496.59;;;-2.91;86.60
72038;BME280;59900;50.788;12.904;2023-02-27T08:09:49;98502.84;;;-2.80;86.22
72038;BME280;59900;50.788;12.904;2023-02-27T08:12:14;98503.13;;;-2.71;86.12
72038;BME280;59900;50.788;12.904;2023-02-27T08:14:39;98503.44;;;-2.61;85.94
72038;BME280;59900;50.788;12.904;2023-02-27T08:17:05;98498.47;;;-2.50;85.58
72038;BME280;59900;50.788;12.904;2023-02-27T08:19:30;98504.69;;;-2.40;84.77
72038;BME280;59900;50.788;12.904;2023-02-27T08:21:55;98506.81;;;-2.33;83.72
72038;BME280;59900;50.788;12.904;2023-02-27T08:24:21;98514.72;;;-2.21;83.73
72038;BME280;59900;50.788;12.904;2023-02-27T08:26:46;98513.97;;;-2.09;82.84
72038;BME280;59900;50.788;12.904;2023-02-27T08:29:11;98525.16;;;-1.96;83.48
72038;BME280;59900;50.788;12.904;2023-02-27T08:31:37;98523.16;;;-1.91;83.06
72038;BME280;59900;50.788;12.904;2023-02-27T08:34:02;98521.19;;;-1.88;82.99
72038;BME280;59900;50.788;12.904;2023-02-27T08:36:27;98521.56;;;-1.80;82.26
72038;BME280;59900;50.788;12.904;2023-02-27T08:38:52;98528.44;;;-1.66;82.68
72038;BME280;59900;50.788;12.904;2023-02-27T08:41:18;98525.19;;;-1.55;81.89
72038;BME280;59900;50.788;12.904;2023-02-27T08:43:43;98528.00;;;-1.46;81.89
72038;BME280;59900;50.788;12.904;2023-02-27T08:46:08;98526.78;;;-1.40;81.13
72038;BME280;59900;50.788;12.904;2023-02-27T08:48:33;98521.16;;;-1.33;81.48
72038;BME280;59900;50.788;12.904;2023-02-27T08:50:59;98522.31;;;-1.24;80.88
72038;BME280;59900;50.788;12.904;2023-02-27T08:53:24;98528.31;;;-1.11;80.98
72038;BME280;59900;50.788;12.904;2023-02-27T08:55:50;98538.16;;;-1.03;80.33
72038;BME280;59900;50.788;12.904;2023-02-27T08:58:16;98531.06;;;-1.00;77.86
72038;BME280;59900;50.788;12.904;2023-02-27T09:00:42;98528.69;;;-1.03;78.53
72038;BME280;59900;50.788;12.904;2023-02-27T09:03:07;98536.94;;;-0.98;78.44
72038;BME280;59900;50.788;12.904;2023-02-27T09:05:32;98545.13;;;-0.91;76.34
72038;BME280;59900;50.788;12.904;2023-02-27T09:08:00;98547.16;;;-0.96;74.83
72038;BME280;59900;50.788;12.904;2023-02-27T09:10:25;98554.34;;;-1.01;74.60
72038;BME280;59900;50.788;12.904;2023-02-27T09:12:51;98555.63;;;-0.94;78.35
72038;BME280;59900;50.788;12.904;2023-02-27T09:15:16;98556.47;;;-0.81;77.20
72038;BME280;59900;50.788;12.904;2023-02-27T09:17:42;98556.28;;;-0.78;76.84
72038;BME280;59900;50.788;12.904;2023-02-27T09:20:07;98550.72;;;-0.72;77.62
72038;BME280;59900;50.788;12.904;2023-02-27T09:22:34;98552.56;;;-0.74;76.36
72038;BME280;59900;50.788;12.904;2023-02-27T09:24:59;98554.94;;;-0.71;77.61
72038;BME280;59900;50.788;12.904;2023-02-27T09:27:24;98549.28;;;-0.64;77.35
72038;BME280;59900;50.788;12.904;2023-02-27T09:29:50;98548.66;;;-0.54;78.27
72038;BME280;59900;50.788;12.904;2023-02-27T09:32:21;98548.56;;;-0.40;78.58
72038;BME280;59900;50.788;12.904;2023-02-27T09:34:46;98550.84;;;-0.36;74.94
72038;BME280;59900;50.788;12.904;2023-02-27T09:37:12;98543.91;;;-0.23;77.33
72038;BME280;59900;50.788;12.904;2023-02-27T09:39:37;98543.50;;;-0.17;76.01
72038;BME280;59900;50.788;12.904;2023-02-27T09:42:04;98549.91;;;-0.10;76.36
72038;BME280;59900;50.788;12.904;2023-02-27T09:44:40;98551.13;;;-0.03;77.42
72038;BME280;59900;50.788;12.904;2023-02-27T09:47:13;98543.38;;;-0.03;77.00
72038;BME280;59900;50.788;12.904;2023-02-27T09:52:16;98547.00;;;-0.05;75.57
72038;BME280;59900;50.788;12.904;2023-02-27T09:54:41;98550.69;;;0.04;77.17
72038;BME280;59900;50.788;12.904;2023-02-27T09:57:14;98549.78;;;0.05;76.51
72038;BME280;59900;50.788;12.904;2023-02-27T09:59:50;98545.25;;;0.08;78.10
72038;BME280;59900;50.788;12.904;2023-02-27T10:02:31;98553.91;;;0.20;77.32
72038;BME280;59900;50.788;12.904;2023-02-27T10:05:14;98540.44;;;0.27;77.84
72038;BME280;59900;50.788;12.904;2023-02-27T10:07:48;98550.03;;;0.38;76.43
72038;BME280;59900;50.788;12.904;2023-02-27T10:13:41;98552.50;;;0.39;77.53
72038;BME280;59900;50.788;12.904;2023-02-27T10:16:12;98559.47;;;0.50;76.25
72038;BME280;59900;50.788;12.904;2023-02-27T10:18:50;98555.44;;;0.59;75.99
72038;BME280;59900;50.788;12.904;2023-02-27T10:21:21;98559.22;;;0.66;76.83
72038;BME280;59900;50.788;12.904;2023-02-27T10:24:06;98567.88;;;0.77;75.71
72038;BME280;59900;50.788;12.904;2023-02-27T10:26:39;98556.03;;;0.86;76.01
72038;BME280;59900;50.788;12.904;2023-02-27T10:32:58;98560.56;;;0.95;74.84
72038;BME280;59900;50.788;12.904;2023-02-27T10:34:54;98566.47;;;0.97;75.90
72038;BME280;59900;50.788;12.904;2023-02-27T10:37:25;98565.72;;;0.95;76.42
72038;BME280;59900;50.788;12.904;2023-02-27T10:39:56;98565.03;;;0.93;76.92
72038;BME280;59900;50.788;12.904;2023-02-27T10:42:25;98569.81;;;0.86;76.87
72038;BME280;59900;50.788;12.904;2023-02-27T10:44:53;98574.28;;;0.84;76.30
72038;BME280;59900;50.788;12.904;2023-02-27T10:47:24;98579.97;;;0.77;77.23
72038;BME280;59900;50.788;12.904;2023-02-27T10:49:50;98579.31;;;0.62;77.05
72038;BME280;59900;50.788;12.904;2023-02-27T10:52:16;98575.84;;;0.50;78.07
72038;BME280;59900;50.788;12.904;2023-02-27T10:54:42;98578.13;;;0.42;78.80
72038;BME280;59900;50.788;12.904;2023-02-27T10:57:30;98577.03;;;0.21;80.22
72038;BME280;59900;50.788;12.904;2023-02-27T11:00:04;98582.97;;;0.11;80.42
72038;BME280;59900;50.788;12.904;2023-02-27T11:02:41;98587.22;;;-0.01;81.45
72038;BME280;59900;50.788;12.904;2023-02-27T11:05:20;98574.59;;;-0.06;81.90
72038;BME280;59900;50.788;12.904;2023-02-27T11:07:47;98569.84;;;0.01;83.59
72038;BME280;59900;50.788;12.904;2023-02-27T11:12:39;98560.44;;;0.00;82.64
72038;BME280;59900;50.788;12.904;2023-02-27T11:17:40;98557.94;;;0.11;82.57
72038;BME280;59900;50.788;12.904;2023-02-27T11:23:06;98556.78;;;0.28;81.67
72038;BME280;59900;50.788;12.904;2023-02-27T11:25:34;98556.34;;;0.34;83.19
72038;BME280;59900;50.788;12.904;2023-02-27T11:30:37;98555.00;;;0.41;82.06
72038;BME280;59900;50.788;12.904;2023-02-27T11:33:03;98554.78;;;0.44;82.56
72038;BME280;59900;50.788;12.904;2023-02-27T11:35:37;98550.63;;;0.41;80.83
72038;BME280;59900;50.788;12.904;2023-02-27T11:38:07;98558.91;;;0.46;81.74
72038;BME280;59900;50.788;12.904;2023-02-27T11:40:48;98550.38;;;0.57;82.61
72038;BME280;59900;50.788;12.904;2023-02-27T11:43:20;98554.00;;;0.54;81.24
72038;BME280;59900;50.788;12.904;2023-02-27T11:46:09;98556.25;;;0.59;81.71
72038;BME280;59900;50.788;12.904;2023-02-27T11:48:45;98557.53;;;0.53;81.09
72038;BME280;59900;50.788;12.904;2023-02-27T11:51:37;98558.84;;;0.59;82.14
72038;BME280;59900;50.788;12.904;2023-02-27T11:54:27;98559.78;;;0.58;81.44
72038;BME280;59900;50.788;12.904;2023-02-27T11:57:17;98562.53;;;0.44;79.49
72038;BME280;59900;50.788;12.904;2023-02-27T11:59:51;98552.09;;;0.33;80.01
72038;BME280;59900;50.788;12.904;2023-02-27T12:02:26;98548.66;;;0.09;80.08
72038;BME280;59900;50.788;12.904;2023-02-27T12:04:57;98546.69;;;-0.01;81.52
72038;BME280;59900;50.788;12.904;2023-02-27T12:07:40;98556.13;;;-0.12;82.67
72038;BME280;59900;50.788;12.904;2023-02-27T12:10:20;98559.09;;;-0.06;84.61
72038;BME280;59900;50.788;12.904;2023-02-27T12:13:01;98549.78;;;0.05;85.20
72038;BME280;59900;50.788;12.904;2023-02-27T12:15:47;98553.50;;;0.13;83.98
72038;BME280;59900;50.788;12.904;2023-02-27T12:18:21;98559.16;;;0.18;84.47
72038;BME280;59900;50.788;12.904;2023-02-27T12:21:08;98549.44;;;0.22;85.21
72038;BME280;59900;50.788;12.904;2023-02-27T12:23:45;98553.13;;;0.30;85.33
72038;BME280;59900;50.788;12.904;2023-02-27T12:28:51;98545.09;;;0.22;84.10
72038;BME280;59900;50.788;12.904;2023-02-27T12:31:29;98552.16;;;0.20;84.30
72038;BME280;59900;50.788;12.904;2023-02-27T12:34:03;98552.94;;;0.21;84.10
72038;BME280;59900;50.788;12.904;2023-02-27T12:36:29;98542.78;;;0.30;84.81
72038;BME280;59900;50.788;12.904;2023-02-27T12:38:55;98547.31;;;0.39;84.88
72038;BME280;59900;50.788;12.904;2023-02-27T12:41:40;98548.56;;;0.46;85.40
72038;BME280;59900;50.788;12.904;2023-02-27T12:46:53;98542.97;;;0.52;83.20
72038;BME280;59900;50.788;12.904;2023-02-27T12:49:34;98545.75;;;0.49;83.55
72038;BME280;59900;50.788;12.904;2023-02-27T12:52:13;98538.81;;;0.50;83.77
72038;BME280;59900;50.788;12.904;2023-02-27T13:00:11;98540.72;;;0.59;83.36
72038;BME280;59900;50.788;12.904;2023-02-27T13:02:53;98544.66;;;0.65;82.46
72038;BME280;59900;50.788;12.904;2023-02-27T13:08:12;98541.13;;;0.89;83.11
72038;BME280;59900;50.788;12.904;2023-02-27T13:10:55;98543.66;;;1.02;82.21
72038;BME280;59900;50.788;12.904;2023-02-27T13:13:35;98544.09;;;1.20;83.24
72038;BME280;59900;50.788;12.904;2023-02-27T13:16:19;98542.22;;;1.33;81.48
72038;BME280;59900;50.788;12.904;2023-02-27T13:21:41;98530.13;;;1.44;80.62
72038;BME280;59900;50.788;12.904;2023-02-27T13:24:29;98538.63;;;1.46;78.70
72038;BME280;59900;50.788;12.904;2023-02-27T13:27:00;98538.03;;;1.54;80.06
72038;BME280;59900;50.788;12.904;2023-02-27T13:29:35;98530.88;;;1.57;78.34
72038;BME280;59900;50.788;12.904;2023-02-27T13:34:42;98535.50;;;1.87;79.53
72038;BME280;59900;50.788;12.904;2023-02-27T13:37:09;98536.56;;;1.96;77.66
72038;BME280;59900;50.788;12.904;2023-02-27T13:45:03;98524.28;;;2.31;78.43
72038;BME280;59900;50.788;12.904;2023-02-27T13:52:50;98526.72;;;2.55;76.00
72038;BME280;59900;50.788;12.904;2023-02-27T13:55:27;98521.72;;;2.63;74.06
72038;BME280;59900;50.788;12.904;2023-02-27T13:57:55;98524.31;;;2.63;72.15
72038;BME280;59900;50.788;12.904;2023-02-27T14:00:24;98529.03;;;2.69;75.01
72038;BME280;59900;50.788;12.904;2023-02-27T14:05:32;98523.16;;;3.19;73.69
72038;BME280;59900;50.788;12.904;2023-02-27T14:08:14;98520.09;;;3.76;70.99
72038;BME280;59900;50.788;12.904;2023-02-27T14:11:00;98525.81;;;4.31;68.73
72038;BME280;59900;50.788;12.904;2023-02-27T14:24:17;98517.25;;;6.01;59.76
72038;BME280;59900;50.788;12.904;2023-02-27T14:26:44;98519.41;;;6.15;62.15
72038;BME280;59900;50.788;12.904;2023-02-27T14:29:20;98519.78;;;6.20;59.28
72038;BME280;59900;50.788;12.904;2023-02-27T14:31:47;98516.78;;;6.15;60.71
72038;BME280;59900;50.788;12.904;2023-02-27T14:34:15;98520.41;;;6.32;61.95
72038;BME280;59900;50.788;12.904;2023-02-27T14:36:47;98525.44;;;6.16;62.10
72038;BME280;59900;50.788;12.904;2023-02-27T14:39:20;98526.97;;;6.09;60.36
72038;BME280;59900;50.788;12.904;2023-02-27T14:42:00;98525.03;;;6.11;59.93
72038;BME280;59900;50.788;12.904;2023-02-27T14:44:37;98528.69;;;5.91;61.25
72038;BME280;59900;50.788;12.904;2023-02-27T14:47:04;98528.81;;;5.80;60.25